createdAt,value
2019-05-29T00:01:35.727Z,4.53
2019-05-29T00:04:44.907Z,4.47
2019-05-29T00:07:53.941Z,4.63
2019-05-29T00:11:06.272Z,3.77
2019-05-29T00:14:27.372Z,3.50
2019-05-29T00:17:36.159Z,3.60
2019-05-29T00:20:48.402Z,4.60
2019-05-29T00:23:58.374Z,4.43
2019-05-29T00:27:05.826Z,4.77
2019-05-29T00:30:25.087Z,4.37
2019-05-29T00:33:42.262Z,4.80
2019-05-29T00:36:51.331Z,5.27
2019-05-29T00:40:10.815Z,4.50
2019-05-29T00:43:22.549Z,5.80
2019-05-29T00:46:39.399Z,5.73
2019-05-29T00:49:58.390Z,5.03
2019-05-29T00:53:04.967Z,5.07
2019-05-29T00:56:10.874Z,5.23
2019-05-29T00:59:25.643Z,4.70
2019-05-29T01:02:32.669Z,5.73
2019-05-29T01:05:51.893Z,6.40
2019-05-29T01:09:01.333Z,6.70
2019-05-29T01:12:12.851Z,6.27
2019-05-29T01:15:19.581Z,5.80
2019-05-29T01:18:25.697Z,6.93
2019-05-29T01:21:34.491Z,7.27
2019-05-29T01:25:16.545Z,7.17
2019-05-29T01:28:27.382Z,6.90
2019-05-29T01:31:35.179Z,5.80
2019-05-29T01:34:45.122Z,6.30
2019-05-29T01:37:53.992Z,6.87
2019-05-29T01:41:08.306Z,7.37
2019-05-29T01:44:21.408Z,13.20
2019-05-29T01:47:28.226Z,6.87
2019-05-29T01:50:34.894Z,9.27
2019-05-29T01:53:43.934Z,7.27
2019-05-29T01:56:56.439Z,6.90
2019-05-29T02:00:04.355Z,6.80
2019-05-29T02:03:13.271Z,6.93
2019-05-29T02:06:21.925Z,7.03
2019-05-29T02:09:29.843Z,7.93
2019-05-29T02:12:44.024Z,6.47
2019-05-29T02:16:01.634Z,6.30
2019-05-29T02:19:15.746Z,5.70
2019-05-29T02:22:23.044Z,6.03
2019-05-29T02:25:32.489Z,9.40
2019-05-29T02:28:38.683Z,8.67
2019-05-29T02:31:48.438Z,8.73
2019-05-29T02:34:54.290Z,7.87
2019-05-29T02:38:05.060Z,7.97
2019-05-29T02:41:13.581Z,8.67
2019-05-29T02:44:23.500Z,9.07
2019-05-29T02:47:30.275Z,7.90
2019-05-29T02:50:35.529Z,7.50
2019-05-29T02:53:40.635Z,7.40
2019-05-29T02:56:45.791Z,8.17
2019-05-29T02:59:50.899Z,7.70
2019-05-29T03:02:56.064Z,8.00
2019-05-29T03:06:01.189Z,7.20
2019-05-29T03:09:07.120Z,7.33
2019-05-29T03:12:12.253Z,7.80
2019-05-29T03:15:18.499Z,9.43
2019-05-29T03:18:24.017Z,9.07
2019-05-29T03:21:32.399Z,6.83
2019-05-29T03:24:37.595Z,6.63
2019-05-29T03:27:42.775Z,7.90
2019-05-29T03:30:48.051Z,6.03
2019-05-29T03:33:53.257Z,8.33
2019-05-29T03:36:58.406Z,8.43
2019-05-29T03:40:03.545Z,8.57
2019-05-29T03:43:08.750Z,7.50
2019-05-29T03:46:30.150Z,5.53
2019-05-29T03:49:20.793Z,8.07
2019-05-29T03:52:26.314Z,6.53
2019-05-29T03:55:33.694Z,7.07
2019-05-29T03:58:38.940Z,6.63
2019-05-29T04:01:44.147Z,8.90
2019-05-29T04:04:49.345Z,7.60
2019-05-29T04:07:54.678Z,8.97
2019-05-29T04:11:00.165Z,8.43
2019-05-29T04:14:05.465Z,8.13
2019-05-29T04:17:12.945Z,7.03
2019-05-29T04:20:18.249Z,7.80
2019-05-29T04:23:24.826Z,7.70
2019-05-29T04:26:32.681Z,10.80
2019-05-29T04:29:39.742Z,7.97
2019-05-29T04:32:44.985Z,7.90
2019-05-29T04:35:50.156Z,10.43
2019-05-29T04:38:55.361Z,8.47
2019-05-29T04:42:00.555Z,7.97
2019-05-29T04:45:06.388Z,10.03
2019-05-29T04:48:11.492Z,6.67
2019-05-29T04:51:16.677Z,7.27
2019-05-29T04:54:21.841Z,7.57
2019-05-29T04:57:27.122Z,6.93
2019-05-29T05:00:33.078Z,8.83
2019-05-29T05:03:39.423Z,6.90
2019-05-29T05:06:44.713Z,6.70
2019-05-29T05:09:49.868Z,8.07
2019-05-29T05:12:55.138Z,7.90
2019-05-29T05:16:02.469Z,7.27
2019-05-29T05:19:07.705Z,7.00
2019-05-29T05:22:13.099Z,6.63
2019-05-29T05:25:18.374Z,6.90
2019-05-29T05:28:23.529Z,7.60
2019-05-29T05:31:28.859Z,7.60
2019-05-29T05:34:34.713Z,7.00
2019-05-29T05:37:41.033Z,6.83
2019-05-29T05:40:46.351Z,9.70
2019-05-29T05:43:51.501Z,7.73
2019-05-29T05:46:56.637Z,7.23
2019-05-29T05:50:02.187Z,8.23
2019-05-29T05:53:07.485Z,7.87
2019-05-29T05:56:12.752Z,6.93
2019-05-29T05:59:17.942Z,7.60
2019-05-29T06:02:23.428Z,7.40
2019-05-29T06:05:28.579Z,8.50
2019-05-29T06:08:34.054Z,7.47
2019-05-29T06:11:40.387Z,8.23
2019-05-29T06:14:45.589Z,8.70
2019-05-29T06:18:10.267Z,6.83
2019-05-29T06:20:57.634Z,6.67
2019-05-29T06:24:02.822Z,9.00
2019-05-29T06:27:07.966Z,5.87
2019-05-29T06:30:13.424Z,6.53
2019-05-29T06:33:18.542Z,5.87
2019-05-29T06:36:24.852Z,6.37
2019-05-29T06:39:30.021Z,6.10
2019-05-29T06:42:35.702Z,7.23
2019-05-29T06:45:42.046Z,6.77
2019-05-29T06:48:58.557Z,5.90
2019-05-29T06:51:54.160Z,5.40
2019-05-29T06:54:59.270Z,5.63
2019-05-29T06:58:04.397Z,6.70
2019-05-29T07:01:09.569Z,4.63
2019-05-29T07:04:14.730Z,4.60
2019-05-29T07:07:19.842Z,5.83
2019-05-29T07:10:25.180Z,4.27
2019-05-29T07:13:34.517Z,3.83
2019-05-29T07:16:45.357Z,3.73
2019-05-29T07:19:53.989Z,4.40
2019-05-29T07:22:51.210Z,3.67
2019-05-29T07:25:56.376Z,5.03
2019-05-29T07:29:07.926Z,4.03
2019-05-29T07:32:08.450Z,3.50
2019-05-29T07:35:14.721Z,4.40
2019-05-29T07:38:19.972Z,4.27
2019-05-29T07:41:25.136Z,7.37
2019-05-29T07:44:30.288Z,4.03
2019-05-29T07:47:35.506Z,3.73
2019-05-29T07:50:40.777Z,4.23
2019-05-29T07:53:46.454Z,3.97
2019-05-29T07:56:51.762Z,3.63
2019-05-29T07:59:56.968Z,3.73
2019-05-29T08:03:02.166Z,8.20
2019-05-29T08:06:07.363Z,5.07
2019-05-29T08:09:12.564Z,4.93
2019-05-29T08:12:17.837Z,3.53
2019-05-29T08:15:22.951Z,2.67
2019-05-29T08:18:28.191Z,3.23
2019-05-29T08:21:33.508Z,2.67
2019-05-29T08:24:38.797Z,2.53
2019-05-29T08:27:44.772Z,3.70
2019-05-29T08:30:56.056Z,2.80
2019-05-29T08:33:58.175Z,2.63
2019-05-29T08:37:07.169Z,3.13
2019-05-29T08:40:11.551Z,5.10
2019-05-29T08:43:16.695Z,2.73
2019-05-29T08:46:21.824Z,4.33
2019-05-29T08:49:27.020Z,2.97
2019-05-29T08:52:32.201Z,3.50
2019-05-29T08:55:37.369Z,2.73
2019-05-29T08:58:42.925Z,3.97
2019-05-29T09:01:50.442Z,3.63
2019-05-29T09:04:55.089Z,6.73
2019-05-29T09:08:00.286Z,5.10
2019-05-29T09:11:05.573Z,4.47
2019-05-29T09:14:10.865Z,4.10
2019-05-29T09:17:16.922Z,3.67
2019-05-29T09:20:37.222Z,5.07
2019-05-29T09:23:29.311Z,3.07
2019-05-29T09:26:34.574Z,4.13
2019-05-29T09:29:39.732Z,3.87
2019-05-29T09:32:51.638Z,3.17
2019-05-29T09:35:51.865Z,5.93
2019-05-29T09:38:57.061Z,3.47
2019-05-29T09:42:02.275Z,6.03
2019-05-29T09:45:07.877Z,2.60
2019-05-29T09:48:13.067Z,3.27
2019-05-29T09:51:21.640Z,4.33
2019-05-29T09:54:25.513Z,3.47
2019-05-29T09:57:30.840Z,4.83
2019-05-29T10:00:36.091Z,4.47
2019-05-29T10:03:41.439Z,2.50
2019-05-29T10:06:46.640Z,6.20
2019-05-29T10:09:51.824Z,3.67
2019-05-29T10:12:58.120Z,4.33
2019-05-29T10:16:04.583Z,4.17
2019-05-29T10:19:09.808Z,2.27
2019-05-29T10:22:15.043Z,2.53
2019-05-29T10:25:20.423Z,3.63
2019-05-29T10:28:25.616Z,3.53
2019-05-29T10:31:30.838Z,6.37
2019-05-29T10:34:36.099Z,2.60
2019-05-29T10:37:42.583Z,5.70
2019-05-29T10:41:00.514Z,2.47
2019-05-29T10:43:55.006Z,2.70
2019-05-29T10:47:00.206Z,2.83
2019-05-29T10:50:06.144Z,2.37
2019-05-29T10:53:11.427Z,2.90
2019-05-29T10:56:20.803Z,2.00
2019-05-29T10:59:23.490Z,3.20
2019-05-29T11:02:28.681Z,3.10
2019-05-29T11:05:33.827Z,3.60
2019-05-29T11:08:39.026Z,4.00
2019-05-29T11:11:44.197Z,2.23
2019-05-29T11:14:50.563Z,1.90
2019-05-29T11:17:57.295Z,1.77
2019-05-29T11:21:02.659Z,3.80
2019-05-29T11:24:07.844Z,3.73
2019-05-29T11:27:12.954Z,4.43
2019-05-29T11:30:18.225Z,3.87
2019-05-29T11:33:23.469Z,2.63
2019-05-29T11:36:28.711Z,5.10
2019-05-29T11:39:33.983Z,1.77
2019-05-29T11:42:39.138Z,6.10
2019-05-29T11:45:44.279Z,3.67
2019-05-29T11:48:49.453Z,3.63
2019-05-29T11:52:17.179Z,4.63
2019-05-29T11:55:04.511Z,2.13
2019-05-29T11:58:09.837Z,2.27
2019-05-29T12:01:15.943Z,1.83
2019-05-29T12:04:26.370Z,3.47
2019-05-29T12:07:28.075Z,4.10
2019-05-29T12:10:34.455Z,3.13
2019-05-29T12:13:39.625Z,3.93
2019-05-29T12:16:44.825Z,3.10
2019-05-29T12:19:50.048Z,2.77
2019-05-29T12:23:20.798Z,4.73
2019-05-29T12:26:19.685Z,3.30
2019-05-29T12:29:11.906Z,2.93
2019-05-29T12:32:16.019Z,2.50
2019-05-29T12:35:21.269Z,4.17
2019-05-29T12:38:26.548Z,2.93
2019-05-29T12:41:31.675Z,2.40
2019-05-29T12:44:36.814Z,4.20
2019-05-29T12:47:42.157Z,8.10
2019-05-29T12:50:47.403Z,3.13
2019-05-29T12:53:53.850Z,2.93
2019-05-29T12:56:59.992Z,2.67
2019-05-29T13:00:06.528Z,2.10
2019-05-29T13:03:11.890Z,3.33
2019-05-29T13:06:17.191Z,1.67
2019-05-29T13:09:22.474Z,1.73
2019-05-29T13:12:27.647Z,1.73
2019-05-29T13:15:32.867Z,2.30
2019-05-29T13:18:37.920Z,2.83
2019-05-29T13:21:43.102Z,1.80
2019-05-29T13:24:48.365Z,2.30
2019-05-29T13:27:53.608Z,2.07
2019-05-29T13:30:59.783Z,4.77
2019-05-29T13:34:06.979Z,3.63
2019-05-29T13:37:12.064Z,4.20
2019-05-29T13:40:17.665Z,3.27
2019-05-29T13:43:23.860Z,2.67
2019-05-29T13:46:28.952Z,3.23
2019-05-29T13:49:34.254Z,1.77
2019-05-29T13:52:39.442Z,4.27
2019-05-29T13:55:44.699Z,2.33
2019-05-29T13:58:49.864Z,3.63
2019-05-29T14:01:55.089Z,2.17
2019-05-29T14:05:00.526Z,3.03
2019-05-29T14:08:07.102Z,2.70
2019-05-29T14:11:12.454Z,1.43
2019-05-29T14:14:17.673Z,2.27
2019-05-29T14:17:22.793Z,3.00
2019-05-29T14:20:28.120Z,3.60
2019-05-29T14:23:33.792Z,2.40
2019-05-29T14:26:38.972Z,1.47
2019-05-29T14:29:44.130Z,1.43
2019-05-29T14:32:49.344Z,2.80
2019-05-29T14:35:54.505Z,2.57
2019-05-29T14:38:59.683Z,1.37
2019-05-29T14:42:05.997Z,2.00
2019-05-29T14:45:12.823Z,2.83
2019-05-29T14:48:18.315Z,1.33
2019-05-29T14:51:23.502Z,1.53
2019-05-29T14:54:41.206Z,1.63
2019-05-29T14:57:35.570Z,1.83
2019-05-29T15:00:40.735Z,2.77
2019-05-29T15:03:45.956Z,2.00
2019-05-29T15:06:51.206Z,1.57
2019-05-29T15:09:56.394Z,1.00
2019-05-29T15:13:01.781Z,2.40
2019-05-29T15:16:09.116Z,1.90
2019-05-29T15:19:15.223Z,2.27
2019-05-29T15:22:20.591Z,2.90
2019-05-29T15:25:25.762Z,2.17
2019-05-29T15:28:30.884Z,3.07
2019-05-29T15:31:36.068Z,2.47
2019-05-29T15:34:41.454Z,3.90
2019-05-29T15:37:46.696Z,1.67
2019-05-29T15:40:51.876Z,1.27
2019-05-29T15:43:57.157Z,2.07
2019-05-29T15:47:02.251Z,2.60
2019-05-29T15:50:09.002Z,2.20
2019-05-29T15:53:15.482Z,1.00
2019-05-29T15:56:27.493Z,1.53
2019-05-29T15:59:27.531Z,2.20
2019-05-29T16:02:32.749Z,4.07
2019-05-29T16:05:37.967Z,2.13
2019-05-29T16:08:43.178Z,3.47
2019-05-29T16:11:48.502Z,1.30
2019-05-29T16:14:53.699Z,2.23
2019-05-29T16:17:58.873Z,3.37
2019-05-29T16:21:04.066Z,1.60
2019-05-29T16:24:10.576Z,2.33
2019-05-29T16:27:16.107Z,4.47
2019-05-29T16:30:21.862Z,1.97
2019-05-29T16:33:27.206Z,1.70
2019-05-29T16:36:32.352Z,2.77
2019-05-29T16:39:37.716Z,1.33
2019-05-29T16:42:42.927Z,3.33
2019-05-29T16:45:48.409Z,17.10
2019-05-29T16:48:53.563Z,5.77
2019-05-29T16:51:58.814Z,4.17
2019-05-29T16:55:04.153Z,7.07
2019-05-29T16:58:10.374Z,4.93
2019-05-29T17:01:15.591Z,4.00
2019-05-29T17:04:21.724Z,3.90
2019-05-29T17:07:27.891Z,3.37
2019-05-29T17:10:36.911Z,4.90
2019-05-29T17:13:42.073Z,4.47
2019-05-29T17:16:47.258Z,7.67
2019-05-29T17:19:52.555Z,24.57
2019-05-29T17:22:57.870Z,13.00
2019-05-29T17:26:10.806Z,4.30
2019-05-29T17:29:09.974Z,1.30
2019-05-29T17:32:15.208Z,2.33
2019-05-29T17:35:21.233Z,1.60
2019-05-29T17:38:26.586Z,3.00
2019-05-29T17:41:31.885Z,2.73
2019-05-29T17:44:37.161Z,2.40
2019-05-29T17:47:42.318Z,2.47
2019-05-29T17:50:47.802Z,2.87
2019-05-29T17:53:52.980Z,4.33
2019-05-29T17:56:59.004Z,3.07
2019-05-29T18:00:05.273Z,3.53
2019-05-29T18:03:12.192Z,2.80
2019-05-29T18:06:18.318Z,2.83
2019-05-29T18:09:27.005Z,2.60
2019-05-29T18:12:30.816Z,3.47
2019-05-29T18:15:36.180Z,2.07
2019-05-29T18:18:41.578Z,3.07
2019-05-29T18:21:46.884Z,2.53
2019-05-29T18:24:52.327Z,3.93
2019-05-29T18:27:57.832Z,4.20
2019-05-29T18:31:03.051Z,3.83
2019-05-29T18:34:08.233Z,5.27
2019-05-29T18:37:13.431Z,2.87
2019-05-29T18:40:20.456Z,2.70
2019-05-29T18:43:26.671Z,4.17
2019-05-29T18:46:37.443Z,2.33
2019-05-29T18:49:39.543Z,3.10
2019-05-29T18:52:44.776Z,3.73
2019-05-29T18:55:50.011Z,1.70
2019-05-29T18:58:55.428Z,3.93
2019-05-29T19:02:03.354Z,4.87
2019-05-29T19:05:09.324Z,5.10
2019-05-29T19:08:14.674Z,2.93
2019-05-29T19:11:19.977Z,3.90
2019-05-29T19:14:25.870Z,1.83
2019-05-29T19:17:32.237Z,4.73
2019-05-29T19:20:37.681Z,3.07
2019-05-29T19:23:42.767Z,3.63
2019-05-29T19:26:47.977Z,4.23
2019-05-29T19:29:53.173Z,3.70
2019-05-29T19:32:58.456Z,3.30
2019-05-29T19:36:03.767Z,3.53
2019-05-29T19:39:09.258Z,2.87
2019-05-29T19:42:15.262Z,4.50
2019-05-29T19:45:20.927Z,2.60
2019-05-29T19:48:26.874Z,4.67
2019-05-29T19:51:33.473Z,4.27
2019-05-29T19:54:38.929Z,5.83
2019-05-29T19:57:55.677Z,5.53
2019-05-29T20:00:51.275Z,2.70
2019-05-29T20:03:57.568Z,2.43
2019-05-29T20:07:03.006Z,2.30
2019-05-29T20:10:09.779Z,3.17
2019-05-29T20:13:15.083Z,4.40
2019-05-29T20:16:20.257Z,2.30
2019-05-29T20:19:25.830Z,4.47
2019-05-29T20:22:31.030Z,4.30
2019-05-29T20:25:37.023Z,3.47
2019-05-29T20:28:42.588Z,4.70
2019-05-29T20:31:47.742Z,7.20
2019-05-29T20:34:55.768Z,3.40
2019-05-29T20:38:00.952Z,3.73
2019-05-29T20:41:06.161Z,4.00
2019-05-29T20:44:12.462Z,5.53
2019-05-29T20:47:17.655Z,6.37
2019-05-29T20:50:23.133Z,2.90
2019-05-29T20:53:28.332Z,4.93
2019-05-29T20:56:33.979Z,3.83
2019-05-29T20:59:40.192Z,6.10
2019-05-29T21:02:45.463Z,3.50
2019-05-29T21:05:50.718Z,3.17
2019-05-29T21:08:56.399Z,8.10
2019-05-29T21:12:01.763Z,3.10
2019-05-29T21:15:09.237Z,4.50
2019-05-29T21:18:14.458Z,5.10
2019-05-29T21:21:20.923Z,5.10
2019-05-29T21:24:26.280Z,4.00
2019-05-29T21:27:31.532Z,6.57
2019-05-29T21:30:37.406Z,3.43
2019-05-29T21:33:45.865Z,7.27
2019-05-29T21:36:49.641Z,5.27
2019-05-29T21:39:54.793Z,9.67
2019-05-29T21:43:00.449Z,3.47
2019-05-29T21:46:05.697Z,4.77
2019-05-29T21:49:11.037Z,4.20
2019-05-29T21:52:19.093Z,8.43
2019-05-29T21:55:24.306Z,6.30
2019-05-29T21:58:29.498Z,4.93
2019-05-29T22:01:35.730Z,4.23
2019-05-29T22:04:42.277Z,4.00
2019-05-29T22:07:48.599Z,3.50
2019-05-29T22:10:55.581Z,4.17
2019-05-29T22:14:00.932Z,3.73
2019-05-29T22:17:07.388Z,8.40
2019-05-29T22:20:13.405Z,5.60
2019-05-29T22:23:18.606Z,4.13
2019-05-29T22:26:23.762Z,4.17
2019-05-29T22:29:28.921Z,4.33
2019-05-29T22:32:34.097Z,5.27
2019-05-29T22:35:41.384Z,4.47
2019-05-29T22:38:46.656Z,4.33
2019-05-29T22:41:51.914Z,4.40
2019-05-29T22:44:57.743Z,4.90
2019-05-29T22:48:02.888Z,5.97
2019-05-29T22:51:08.175Z,4.80
2019-05-29T22:54:13.322Z,6.07
2019-05-29T22:57:18.538Z,6.93
2019-05-29T23:00:23.820Z,7.10
2019-05-29T23:03:29.067Z,6.23
2019-05-29T23:06:34.258Z,5.53
2019-05-29T23:09:39.491Z,6.23
2019-05-29T23:12:45.711Z,6.90
2019-05-29T23:15:52.346Z,7.93
2019-05-29T23:18:58.554Z,5.83
2019-05-29T23:22:04.941Z,6.50
2019-05-29T23:25:10.168Z,4.60
2019-05-29T23:28:15.293Z,5.73
2019-05-29T23:31:21.779Z,6.63
2019-05-29T23:34:26.937Z,5.93
2019-05-29T23:37:32.074Z,5.67
2019-05-29T23:40:37.276Z,6.83
2019-05-29T23:43:42.460Z,6.83
2019-05-29T23:46:47.599Z,4.90
2019-05-29T23:49:53.511Z,5.40
2019-05-29T23:52:59.663Z,5.63
2019-05-29T23:56:04.896Z,6.87
2019-05-29T23:59:09.999Z,5.10
